sensor_id;sensor_type;location;lat;lon;timestamp;pressure;altitude;pressure_sealevel;temperature;humidity
59315;BME280;46521;50.160;20.802;2023-03-13T00:15:24;99313.46;;;2.18;61.54
59315;BME280;46521;50.160;20.802;2023-03-13T00:25:26;99319.13;;;2.23;61.61
59315;BME280;46521;50.160;20.802;2023-03-13T00:35:27;99343.80;;;2.19;61.42
59315;BME280;46521;50.160;20.802;2023-03-13T00:45:29;99328.63;;;2.24;62.26
59315;BME280;46521;50.160;20.802;2023-03-13T00:55:31;99311.83;;;2.38;62.89
59315;BME280;46521;50.160;20.802;2023-03-13T01:05:32;99306.22;;;2.54;62.66
59315;BME280;46521;50.160;20.802;2023-03-13T01:15:34;99300.63;;;2.80;63.04
59315;BME280;46521;50.160;20.802;2023-03-13T01:25:36;99286.13;;;2.87;63.02
59315;BME280;46521;50.160;20.802;2023-03-13T01:35:38;99263.99;;;2.91;63.06
59315;BME280;46521;50.160;20.802;2023-03-13T01:56:10;99240.23;;;2.94;63.69
59315;BME280;46521;50.160;20.802;2023-03-13T02:06:13;99235.98;;;2.93;62.97
59315;BME280;46521;50.160;20.802;2023-03-13T02:16:15;99258.08;;;2.89;63.79
59315;BME280;46521;50.160;20.802;2023-03-13T02:26:17;99262.87;;;2.84;62.94
59315;BME280;46521;50.160;20.802;2023-03-13T02:36:19;99266.55;;;2.81;63.12
59315;BME280;46521;50.160;20.802;2023-03-13T02:46:21;99268.22;;;2.82;63.37
59315;BME280;46521;50.160;20.802;2023-03-13T02:56:25;99258.84;;;2.80;63.22
59315;BME280;46521;50.160;20.802;2023-03-13T03:06:27;99266.67;;;2.80;63.17
59315;BME280;46521;50.160;20.802;2023-03-13T03:16:29;99277.38;;;2.77;63.83
59315;BME280;46521;50.160;20.802;2023-03-13T03:26:30;99277.76;;;2.72;64.35
59315;BME280;46521;50.160;20.802;2023-03-13T03:36:32;99276.34;;;2.68;63.90
59315;BME280;46521;50.160;20.802;2023-03-13T03:46:33;99283.92;;;2.71;64.26
59315;BME280;46521;50.160;20.802;2023-03-13T03:56:35;99286.28;;;2.74;64.51
59315;BME280;46521;50.160;20.802;2023-03-13T04:06:36;99277.81;;;2.82;64.68
59315;BME280;46521;50.160;20.802;2023-03-13T04:16:38;99274.56;;;2.89;65.00
59315;BME280;46521;50.160;20.802;2023-03-13T04:26:39;99276.97;;;3.02;65.02
59315;BME280;46521;50.160;20.802;2023-03-13T04:36:41;99285.45;;;3.16;65.26
59315;BME280;46521;50.160;20.802;2023-03-13T04:46:43;99284.67;;;3.25;66.04
59315;BME280;46521;50.160;20.802;2023-03-13T04:56:44;99287.98;;;3.27;66.27
59315;BME280;46521;50.160;20.802;2023-03-13T05:06:46;99276.31;;;3.31;66.68
59315;BME280;46521;50.160;20.802;2023-03-13T05:16:47;99264.23;;;3.40;66.91
59315;BME280;46521;50.160;20.802;2023-03-13T05:26:48;99271.61;;;3.56;67.28
59315;BME280;46521;50.160;20.802;2023-03-13T05:36:50;99279.08;;;3.70;67.74
59315;BME280;46521;50.160;20.802;2023-03-13T05:46:52;99272.20;;;3.79;67.51
59315;BME280;46521;50.160;20.802;2023-03-13T05:56:53;99275.14;;;3.95;67.84
59315;BME280;46521;50.160;20.802;2023-03-13T06:06:55;99261.53;;;4.11;67.80
59315;BME280;46521;50.160;20.802;2023-03-13T06:16:56;99257.81;;;4.43;68.33
59315;BME280;46521;50.160;20.802;2023-03-13T06:26:58;99252.30;;;4.66;68.17
59315;BME280;46521;50.160;20.802;2023-03-13T06:36:59;99259.02;;;4.88;68.55
59315;BME280;46521;50.160;20.802;2023-03-13T06:47:01;99277.30;;;5.17;68.17
59315;BME280;46521;50.160;20.802;2023-03-13T06:57:02;99277.72;;;5.78;68.74
59315;BME280;46521;50.160;20.802;2023-03-13T07:07:04;99265.67;;;6.13;68.21
59315;BME280;46521;50.160;20.802;2023-03-13T07:17:05;99257.27;;;6.27;68.38
59315;BME280;46521;50.160;20.802;2023-03-13T07:27:07;99247.89;;;6.43;68.26
59315;BME280;46521;50.160;20.802;2023-03-13T07:37:08;99252.20;;;6.70;68.20
59315;BME280;46521;50.160;20.802;2023-03-13T07:47:10;99243.14;;;7.17;68.10
59315;BME280;46521;50.160;20.802;2023-03-13T07:57:11;99236.13;;;7.68;67.78
59315;BME280;46521;50.160;20.802;2023-03-13T08:07:13;99220.91;;;8.13;67.94
59315;BME280;46521;50.160;20.802;2023-03-13T08:17:14;99228.69;;;8.31;67.23
59315;BME280;46521;50.160;20.802;2023-03-13T08:27:16;99206.31;;;8.52;66.67
59315;BME280;46521;50.160;20.802;2023-03-13T08:37:17;99198.70;;;8.65;66.63
59315;BME280;46521;50.160;20.802;2023-03-13T08:47:19;99189.85;;;8.50;66.56
59315;BME280;46521;50.160;20.802;2023-03-13T08:57:21;99179.75;;;8.37;66.81
59315;BME280;46521;50.160;20.802;2023-03-13T09:07:22;99160.82;;;8.66;66.69
59315;BME280;46521;50.160;20.802;2023-03-13T09:17:24;99139.59;;;9.15;66.74
59315;BME280;46521;50.160;20.802;2023-03-13T09:27:26;99135.77;;;9.49;65.65
59315;BME280;46521;50.160;20.802;2023-03-13T09:37:28;99128.53;;;10.74;65.06
59315;BME280;46521;50.160;20.802;2023-03-13T09:47:38;99112.52;;;11.63;64.07
59315;BME280;46521;50.160;20.802;2023-03-13T09:57:55;99097.43;;;11.64;63.69
59315;BME280;46521;50.160;20.802;2023-03-13T10:18:18;99075.45;;;12.70;60.74
59315;BME280;46521;50.160;20.802;2023-03-13T10:28:21;99068.31;;;13.25;60.55
59315;BME280;46521;50.160;20.802;2023-03-13T10:38:23;99058.02;;;13.64;59.58
59315;BME280;46521;50.160;20.802;2023-03-13T10:48:28;99051.86;;;13.50;58.79
59315;BME280;46521;50.160;20.802;2023-03-13T11:08:36;99006.83;;;13.22;58.18
59315;BME280;46521;50.160;20.802;2023-03-13T11:28:54;98977.68;;;14.74;56.21
59315;BME280;46521;50.160;20.802;2023-03-13T11:49:25;98932.44;;;15.38;55.25
59315;BME280;46521;50.160;20.802;2023-03-13T12:10:09;98902.09;;;14.82;50.92
59315;BME280;46521;50.160;20.802;2023-03-13T12:30:37;98897.58;;;13.51;53.06
59315;BME280;46521;50.160;20.802;2023-03-13T12:51:38;98877.33;;;13.24;51.02
59315;BME280;46521;50.160;20.802;2023-03-13T13:01:51;98863.64;;;13.07;51.77
59315;BME280;46521;50.160;20.802;2023-03-13T13:11:55;98845.67;;;12.89;51.53
59315;BME280;46521;50.160;20.802;2023-03-13T13:32:54;98797.48;;;12.65;51.32
59315;BME280;46521;50.160;20.802;2023-03-13T13:43:00;98801.14;;;12.57;51.19
59315;BME280;46521;50.160;20.802;2023-03-13T13:53:29;98796.64;;;12.58;51.13
59315;BME280;46521;50.160;20.802;2023-03-13T14:03:31;98798.89;;;12.61;50.46
59315;BME280;46521;50.160;20.802;2023-03-13T14:13:33;98790.33;;;12.66;49.38
59315;BME280;46521;50.160;20.802;2023-03-13T14:23:39;98776.05;;;12.73;49.12
59315;BME280;46521;50.160;20.802;2023-03-13T14:33:44;98778.71;;;12.67;49.59
59315;BME280;46521;50.160;20.802;2023-03-13T14:43:45;98796.23;;;12.48;49.75
59315;BME280;46521;50.160;20.802;2023-03-13T15:03:56;98776.05;;;11.85;51.32
59315;BME280;46521;50.160;20.802;2023-03-13T15:13:58;98772.72;;;11.69;51.25
59315;BME280;46521;50.160;20.802;2023-03-13T15:24:01;98768.59;;;11.60;51.23
59315;BME280;46521;50.160;20.802;2023-03-13T15:34:12;98772.58;;;11.43;52.62
59315;BME280;46521;50.160;20.802;2023-03-13T15:44:14;98773.65;;;11.20;53.01
59315;BME280;46521;50.160;20.802;2023-03-13T15:54:15;98797.31;;;11.00;53.87
59315;BME280;46521;50.160;20.802;2023-03-13T16:04:17;98797.28;;;10.72;55.18
59315;BME280;46521;50.160;20.802;2023-03-13T16:14:18;98799.81;;;10.37;55.76
59315;BME280;46521;50.160;20.802;2023-03-13T16:24:19;98798.58;;;10.03;56.84
59315;BME280;46521;50.160;20.802;2023-03-13T16:34:21;98789.79;;;9.81;57.82
59315;BME280;46521;50.160;20.802;2023-03-13T16:44:22;98794.08;;;9.67;58.07
59315;BME280;46521;50.160;20.802;2023-03-13T16:54:24;98790.29;;;9.54;58.73
59315;BME280;46521;50.160;20.802;2023-03-13T17:04:25;98794.27;;;9.35;58.55
59315;BME280;46521;50.160;20.802;2023-03-13T17:14:27;98796.55;;;9.24;59.28
59315;BME280;46521;50.160;20.802;2023-03-13T17:24:28;98790.42;;;9.08;59.73
59315;BME280;46521;50.160;20.802;2023-03-13T17:34:30;98778.75;;;8.88;60.03
59315;BME280;46521;50.160;20.802;2023-03-13T17:44:31;98765.41;;;8.66;60.64
59315;BME280;46521;50.160;20.802;2023-03-13T17:54:33;98743.28;;;8.52;60.71
59315;BME280;46521;50.160;20.802;2023-03-13T18:04:34;98750.09;;;8.46;61.27
59315;BME280;46521;50.160;20.802;2023-03-13T18:14:36;98735.73;;;8.49;61.38
59315;BME280;46521;50.160;20.802;2023-03-13T18:24:38;98730.28;;;8.51;61.30
59315;BME280;46521;50.160;20.802;2023-03-13T18:34:40;98722.09;;;8.45;61.05
59315;BME280;46521;50.160;20.802;2023-03-13T18:44:41;98706.61;;;8.42;61.54
59315;BME280;46521;50.160;20.802;2023-03-13T18:54:43;98697.13;;;8.33;61.51
59315;BME280;46521;50.160;20.802;2023-03-13T19:04:45;98668.94;;;8.19;61.70
59315;BME280;46521;50.160;20.802;2023-03-13T19:14:48;98660.27;;;8.10;61.45
59315;BME280;46521;50.160;20.802;2023-03-13T19:24:50;98643.41;;;7.96;61.88
59315;BME280;46521;50.160;20.802;2023-03-13T19:34:51;98634.31;;;7.84;62.87
59315;BME280;46521;50.160;20.802;2023-03-13T19:44:53;98611.42;;;7.61;62.17
59315;BME280;46521;50.160;20.802;2023-03-13T19:54:54;98617.38;;;7.55;62.36
59315;BME280;46521;50.160;20.802;2023-03-13T20:04:57;98611.83;;;7.50;62.34
59315;BME280;46521;50.160;20.802;2023-03-13T20:14:58;98602.45;;;7.47;62.66
59315;BME280;46521;50.160;20.802;2023-03-13T20:25:00;98596.39;;;7.47;62.84
59315;BME280;46521;50.160;20.802;2023-03-13T20:35:01;98587.16;;;7.51;61.83
59315;BME280;46521;50.160;20.802;2023-03-13T20:45:07;98581.06;;;7.50;62.24
59315;BME280;46521;50.160;20.802;2023-03-13T20:55:09;98569.09;;;7.48;61.50
59315;BME280;46521;50.160;20.802;2023-03-13T21:05:11;98555.59;;;7.51;60.91
59315;BME280;46521;50.160;20.802;2023-03-13T21:15:13;98544.38;;;7.57;60.67
59315;BME280;46521;50.160;20.802;2023-03-13T21:25:15;98539.28;;;7.55;60.65
59315;BME280;46521;50.160;20.802;2023-03-13T21:35:17;98516.77;;;7.53;60.31
59315;BME280;46521;50.160;20.802;2023-03-13T21:45:18;98518.34;;;7.39;60.72
59315;BME280;46521;50.160;20.802;2023-03-13T21:55:20;98502.86;;;7.21;61.07
59315;BME280;46521;50.160;20.802;2023-03-13T22:05:21;98490.09;;;7.10;61.18
59315;BME280;46521;50.160;20.802;2023-03-13T22:15:23;98472.79;;;6.92;61.56
59315;BME280;46521;50.160;20.802;2023-03-13T22:25:24;98470.67;;;6.88;60.82
59315;BME280;46521;50.160;20.802;2023-03-13T22:35:26;98454.10;;;6.87;61.04
59315;BME280;46521;50.160;20.802;2023-03-13T22:45:27;98432.73;;;6.90;61.14
59315;BME280;46521;50.160;20.802;2023-03-13T22:55:31;98432.84;;;6.97;61.35
59315;BME280;46521;50.160;20.802;2023-03-13T23:05:37;98423.97;;;6.98;61.05
59315;BME280;46521;50.160;20.802;2023-03-13T23:15:40;98447.80;;;6.96;60.92
59315;BME280;46521;50.160;20.802;2023-03-13T23:25:41;98437.98;;;6.90;61.53
59315;BME280;46521;50.160;20.802;2023-03-13T23:35:43;98414.39;;;6.82;61.63
59315;BME280;46521;50.160;20.802;2023-03-13T23:45:45;98411.09;;;6.80;61.37
